createdAt,value
2022-11-22T00:00:01.278Z,969.11
2022-11-22T00:01:01.055Z,969.22
2022-11-22T00:02:01.185Z,969.31
2022-11-22T00:03:01.106Z,969.29
2022-11-22T00:04:01.039Z,969.34
2022-11-22T00:05:01.222Z,969.43
2022-11-22T00:06:01.023Z,969.30
2022-11-22T00:07:01.155Z,969.28
2022-11-22T00:08:01.079Z,969.30
2022-11-22T00:09:01.021Z,969.30
2022-11-22T00:10:01.012Z,969.23
2022-11-22T00:11:00.950Z,969.29
2022-11-22T00:12:01.049Z,969.29
2022-11-22T00:13:00.959Z,969.36
2022-11-22T00:14:00.934Z,969.35
2022-11-22T00:15:00.947Z,969.42
2022-11-22T00:16:00.909Z,969.45
2022-11-22T00:17:01.150Z,969.47
2022-11-22T00:18:00.925Z,969.55
2022-11-22T00:19:00.871Z,969.52
2022-11-22T00:20:00.901Z,969.50
2022-11-22T00:21:01.389Z,969.48
2022-11-22T00:22:00.861Z,969.52
2022-11-22T00:23:00.829Z,969.49
2022-11-22T00:24:00.887Z,969.54
2022-11-22T00:25:01.037Z,969.51
2022-11-22T00:26:00.802Z,969.51
2022-11-22T00:27:00.825Z,969.53
2022-11-22T00:28:00.881Z,969.51
2022-11-22T00:29:00.765Z,969.54
2022-11-22T00:30:00.794Z,969.51
2022-11-22T00:31:00.742Z,969.45
2022-11-22T00:32:00.749Z,969.56
2022-11-22T00:33:00.719Z,969.54
2022-11-22T00:34:00.762Z,969.52
2022-11-22T00:35:00.746Z,969.57
2022-11-22T00:36:00.710Z,969.59
2022-11-22T00:37:00.707Z,969.58
2022-11-22T00:38:00.668Z,969.61
2022-11-22T00:39:00.651Z,969.66
2022-11-22T00:40:00.664Z,969.64
2022-11-22T00:41:00.697Z,969.62
2022-11-22T00:42:00.697Z,969.58
2022-11-22T00:43:00.698Z,969.59
2022-11-22T00:44:00.799Z,969.58
2022-11-22T00:45:00.584Z,969.64
2022-11-22T00:46:00.575Z,969.66
2022-11-22T00:47:00.805Z,969.62
2022-11-22T00:48:00.571Z,969.64
2022-11-22T00:49:00.768Z,969.66
2022-11-22T00:50:00.594Z,969.68
2022-11-22T00:51:00.641Z,969.69
2022-11-22T00:52:00.594Z,969.66
2022-11-22T00:53:00.571Z,969.71
2022-11-22T00:54:00.541Z,969.71
2022-11-22T00:55:00.485Z,969.74
2022-11-22T00:56:00.553Z,969.74
2022-11-22T00:57:00.525Z,969.77
2022-11-22T00:58:00.495Z,969.78
2022-11-22T00:59:00.510Z,969.76
2022-11-22T01:00:00.445Z,969.77
2022-11-22T01:01:00.523Z,969.78
2022-11-22T01:02:00.441Z,969.84
2022-11-22T01:03:00.487Z,969.83
2022-11-22T01:04:00.658Z,969.87
2022-11-22T01:05:00.373Z,969.85
2022-11-22T01:06:00.375Z,969.80
2022-11-22T01:07:00.457Z,969.87
2022-11-22T01:08:00.367Z,969.82
2022-11-22T01:09:00.369Z,969.80
2022-11-22T01:10:00.399Z,969.80
2022-11-22T01:11:00.428Z,969.89
2022-11-22T01:12:00.389Z,969.83
2022-11-22T01:13:00.379Z,969.88
2022-11-22T01:14:00.291Z,969.86
2022-11-22T01:15:00.413Z,969.88
2022-11-22T01:16:00.318Z,969.93
2022-11-22T01:17:00.390Z,969.93
2022-11-22T01:18:00.273Z,969.93
2022-11-22T01:19:00.416Z,969.88
2022-11-22T01:20:00.316Z,969.85
2022-11-22T01:21:00.209Z,969.96
2022-11-22T01:22:00.274Z,969.95
2022-11-22T01:23:00.229Z,970.00
2022-11-22T01:24:00.191Z,969.99
2022-11-22T01:25:00.187Z,970.06
2022-11-22T01:26:00.592Z,970.05
2022-11-22T01:27:00.198Z,970.05
2022-11-22T01:28:00.162Z,969.99
2022-11-22T01:29:00.173Z,970.05
2022-11-22T01:30:00.177Z,970.06
2022-11-22T01:31:00.165Z,970.10
2022-11-22T01:32:00.152Z,970.08
2022-11-22T01:33:00.148Z,970.03
2022-11-22T01:34:00.157Z,970.12
2022-11-22T01:35:00.062Z,970.11
2022-11-22T01:36:00.051Z,970.17
2022-11-22T01:37:00.403Z,970.14
2022-11-22T01:38:00.047Z,970.16
2022-11-22T01:39:00.021Z,970.14
2022-11-22T01:40:00.037Z,970.10
2022-11-22T01:41:00.003Z,970.20
2022-11-22T01:42:00.096Z,970.24
2022-11-22T01:43:00.102Z,970.16
2022-11-22T01:43:59.985Z,970.25
2022-11-22T01:45:00.136Z,970.20
2022-11-22T01:46:00.149Z,970.21
2022-11-22T01:46:59.998Z,970.18
2022-11-22T01:47:59.926Z,970.18
2022-11-22T01:48:59.957Z,970.18
2022-11-22T01:50:00.149Z,970.22
2022-11-22T01:50:59.887Z,970.18
2022-11-22T01:51:59.903Z,970.14
2022-11-22T01:52:59.900Z,970.15
2022-11-22T01:53:59.939Z,970.19
2022-11-22T01:54:59.863Z,970.08
2022-11-22T01:55:59.894Z,970.05
2022-11-22T01:56:59.857Z,970.12
2022-11-22T01:57:59.813Z,970.13
2022-11-22T01:58:59.886Z,970.10
2022-11-22T01:59:59.807Z,970.10
2022-11-22T02:00:59.868Z,970.12
2022-11-22T02:01:59.888Z,970.13
2022-11-22T02:02:59.891Z,970.07
2022-11-22T02:03:59.768Z,970.10
2022-11-22T02:04:59.767Z,970.08
2022-11-22T02:05:59.741Z,970.12
2022-11-22T02:06:59.881Z,970.16
2022-11-22T02:07:59.751Z,970.17
2022-11-22T02:08:59.749Z,970.20
2022-11-22T02:09:59.698Z,970.24
2022-11-22T02:10:59.747Z,970.22
2022-11-22T02:11:59.701Z,970.30
2022-11-22T02:12:59.745Z,970.26
2022-11-22T02:13:59.739Z,970.26
2022-11-22T02:14:59.705Z,970.25
2022-11-22T02:15:59.752Z,970.30
2022-11-22T02:17:00.065Z,970.28
2022-11-22T02:17:59.608Z,970.26
2022-11-22T02:18:59.600Z,970.27
2022-11-22T02:19:59.639Z,970.22
2022-11-22T02:20:59.611Z,970.25
2022-11-22T02:21:59.661Z,970.24
2022-11-22T02:22:59.570Z,970.31
2022-11-22T02:23:59.576Z,970.21
2022-11-22T02:24:59.545Z,970.27
2022-11-22T02:25:59.536Z,970.35
2022-11-22T02:26:59.534Z,970.35
2022-11-22T02:27:59.557Z,970.32
2022-11-22T02:28:59.544Z,970.33
2022-11-22T02:29:59.512Z,970.31
2022-11-22T02:30:59.468Z,970.35
2022-11-22T02:31:59.542Z,970.35
2022-11-22T02:32:59.461Z,970.39
2022-11-22T02:34:01.698Z,970.37
2022-11-22T02:34:59.475Z,970.39
2022-11-22T02:35:59.467Z,970.41
2022-11-22T02:36:59.459Z,970.42
2022-11-22T02:37:59.402Z,970.43
2022-11-22T02:38:59.411Z,970.44
2022-11-22T02:39:59.398Z,970.51
2022-11-22T02:40:59.435Z,970.50
2022-11-22T02:41:59.371Z,970.50
2022-11-22T02:42:59.351Z,970.51
2022-11-22T02:43:59.453Z,970.53
2022-11-22T02:44:59.385Z,970.52
2022-11-22T02:45:59.349Z,970.56
2022-11-22T02:46:59.341Z,970.49
2022-11-22T02:47:59.307Z,970.53
2022-11-22T02:48:59.299Z,970.56
2022-11-22T02:49:59.265Z,970.58
2022-11-22T02:50:59.255Z,970.54
2022-11-22T02:51:59.290Z,970.58
2022-11-22T02:52:59.244Z,970.58
2022-11-22T02:53:59.255Z,970.61
2022-11-22T02:54:59.247Z,970.60
2022-11-22T02:55:59.245Z,970.63
2022-11-22T02:56:59.346Z,970.64
2022-11-22T02:57:59.213Z,970.61
2022-11-22T02:58:59.179Z,970.59
2022-11-22T02:59:59.268Z,970.62
2022-11-22T03:00:59.352Z,970.58
2022-11-22T03:02:03.252Z,970.62
2022-11-22T03:02:59.164Z,970.62
2022-11-22T03:03:59.162Z,970.60
2022-11-22T03:04:59.164Z,970.59
2022-11-22T03:05:59.186Z,970.53
2022-11-22T03:06:59.153Z,970.52
2022-11-22T03:07:59.165Z,970.57
2022-11-22T03:08:59.153Z,970.56
2022-11-22T03:09:59.059Z,970.55
2022-11-22T03:10:59.050Z,970.60
2022-11-22T03:11:59.132Z,970.51
2022-11-22T03:12:59.053Z,970.55
2022-11-22T03:13:59.101Z,970.54
2022-11-22T03:14:59.015Z,970.54
2022-11-22T03:15:58.985Z,970.55
2022-11-22T03:16:58.998Z,970.54
2022-11-22T03:17:59.089Z,970.53
2022-11-22T03:18:58.968Z,970.52
2022-11-22T03:19:59.000Z,970.51
2022-11-22T03:20:59.043Z,970.53
2022-11-22T03:21:59.325Z,970.54
2022-11-22T03:22:59.189Z,970.56
2022-11-22T03:23:58.942Z,970.57
2022-11-22T03:24:58.903Z,970.54
2022-11-22T03:25:59.007Z,970.59
2022-11-22T03:26:58.902Z,970.59
2022-11-22T03:27:58.937Z,970.59
2022-11-22T03:28:58.857Z,970.64
2022-11-22T03:29:58.860Z,970.62
2022-11-22T03:30:58.867Z,970.64
2022-11-22T03:31:58.888Z,970.68
2022-11-22T03:32:59.254Z,970.64
2022-11-22T03:33:58.887Z,970.65
2022-11-22T03:34:58.914Z,970.61
2022-11-22T03:35:58.788Z,970.65
2022-11-22T03:36:58.810Z,970.58
2022-11-22T03:37:58.800Z,970.60
2022-11-22T03:38:58.755Z,970.62
2022-11-22T03:39:58.792Z,970.58
2022-11-22T03:40:58.798Z,970.58
2022-11-22T03:41:58.808Z,970.56
2022-11-22T03:42:58.721Z,970.58
2022-11-22T03:43:58.719Z,970.61
2022-11-22T03:44:58.686Z,970.60
2022-11-22T03:45:58.695Z,970.61
2022-11-22T03:46:58.726Z,970.54
2022-11-22T03:47:58.701Z,970.52
2022-11-22T03:48:58.730Z,970.57
2022-11-22T03:49:58.626Z,970.57
2022-11-22T03:50:58.618Z,970.62
2022-11-22T03:51:58.690Z,970.58
2022-11-22T03:52:58.594Z,970.56
2022-11-22T03:53:58.612Z,970.60
2022-11-22T03:54:58.577Z,970.66
2022-11-22T03:55:58.559Z,970.65
2022-11-22T03:56:58.674Z,970.68
2022-11-22T03:57:58.573Z,970.68
2022-11-22T03:58:58.605Z,970.65
2022-11-22T03:59:58.597Z,970.72
2022-11-22T04:00:58.562Z,970.68
2022-11-22T04:01:58.613Z,970.68
2022-11-22T04:02:58.492Z,970.65
2022-11-22T04:03:58.600Z,970.61
2022-11-22T04:04:58.489Z,970.63
2022-11-22T04:05:58.498Z,970.70
2022-11-22T04:06:58.489Z,970.71
2022-11-22T04:07:58.495Z,970.70
2022-11-22T04:08:58.795Z,970.76
2022-11-22T04:09:58.596Z,970.83
2022-11-22T04:10:58.444Z,970.86
2022-11-22T04:11:58.610Z,970.79
2022-11-22T04:12:58.460Z,970.78
2022-11-22T04:13:58.426Z,970.87
2022-11-22T04:14:58.380Z,970.81
2022-11-22T04:15:58.377Z,970.77
2022-11-22T04:16:58.434Z,970.86
2022-11-22T04:17:58.388Z,970.77
2022-11-22T04:18:58.331Z,970.78
2022-11-22T04:19:58.369Z,970.83
2022-11-22T04:20:58.358Z,970.76
2022-11-22T04:21:58.315Z,970.77
2022-11-22T04:22:58.340Z,970.80
2022-11-22T04:23:58.287Z,970.77
2022-11-22T04:24:58.359Z,970.78
2022-11-22T04:25:58.262Z,970.79
2022-11-22T04:26:58.301Z,970.72
2022-11-22T04:27:58.245Z,970.79
2022-11-22T04:29:11.173Z,970.72
2022-11-22T04:29:59.206Z,970.79
2022-11-22T04:30:58.211Z,970.82
2022-11-22T04:31:58.268Z,970.78
2022-11-22T04:32:58.305Z,970.67
2022-11-22T04:33:58.246Z,970.84
2022-11-22T04:34:58.207Z,970.81
2022-11-22T04:35:58.153Z,970.78
2022-11-22T04:36:58.149Z,970.81
2022-11-22T04:37:58.159Z,970.80
2022-11-22T04:38:58.133Z,970.81
2022-11-22T04:39:58.147Z,970.80
2022-11-22T04:40:58.115Z,970.85
2022-11-22T04:41:58.111Z,970.86
2022-11-22T04:42:58.148Z,970.86
2022-11-22T04:43:58.065Z,970.82
2022-11-22T04:44:58.056Z,970.91
2022-11-22T04:45:58.033Z,970.85
2022-11-22T04:46:58.067Z,970.88
2022-11-22T04:47:58.070Z,970.83
2022-11-22T04:48:58.023Z,970.85
2022-11-22T04:49:58.016Z,970.91
2022-11-22T04:50:57.995Z,970.89
2022-11-22T04:51:57.984Z,970.89
2022-11-22T04:52:58.142Z,970.93
2022-11-22T04:53:58.014Z,970.89
2022-11-22T04:54:57.951Z,970.81
2022-11-22T04:55:57.957Z,970.84
2022-11-22T04:56:57.943Z,970.75
2022-11-22T04:58:00.308Z,970.77
2022-11-22T04:58:57.918Z,970.74
2022-11-22T04:59:57.916Z,970.78
2022-11-22T05:00:57.949Z,970.81
2022-11-22T05:01:57.891Z,970.84
2022-11-22T05:02:57.866Z,970.83
2022-11-22T05:03:57.868Z,970.80
2022-11-22T05:04:57.932Z,970.83
2022-11-22T05:05:57.851Z,970.81
2022-11-22T05:06:57.861Z,970.82
2022-11-22T05:07:57.790Z,970.86
2022-11-22T05:08:57.789Z,970.88
2022-11-22T05:09:57.792Z,970.85
2022-11-22T05:10:57.815Z,970.98
2022-11-22T05:11:57.811Z,970.90
2022-11-22T05:12:57.798Z,970.96
2022-11-22T05:13:57.735Z,970.94
2022-11-22T05:14:57.814Z,970.98
2022-11-22T05:15:57.746Z,971.00
2022-11-22T05:16:57.779Z,971.00
2022-11-22T05:17:57.707Z,971.01
2022-11-22T05:18:57.898Z,970.99
2022-11-22T05:19:57.717Z,970.98
2022-11-22T05:20:57.696Z,970.98
2022-11-22T05:21:57.709Z,970.99
2022-11-22T05:22:57.699Z,970.99
2022-11-22T05:23:57.645Z,970.99
2022-11-22T05:24:57.621Z,971.00
2022-11-22T05:25:57.623Z,970.98
2022-11-22T05:26:57.687Z,971.01
2022-11-22T05:27:57.667Z,971.05
2022-11-22T05:28:57.575Z,971.05
2022-11-22T05:29:57.616Z,971.03
2022-11-22T05:30:57.594Z,971.09
2022-11-22T05:31:57.556Z,971.09
2022-11-22T05:32:57.546Z,971.05
2022-11-22T05:33:57.605Z,971.10
2022-11-22T05:34:57.563Z,971.11
2022-11-22T05:35:57.540Z,971.13
2022-11-22T05:36:57.542Z,971.10
2022-11-22T05:37:57.564Z,971.05
2022-11-22T05:38:57.551Z,971.16
2022-11-22T05:39:57.607Z,971.12
2022-11-22T05:40:57.507Z,971.14
2022-11-22T05:41:57.531Z,971.17
2022-11-22T05:42:57.528Z,971.17
2022-11-22T05:43:57.498Z,971.13
2022-11-22T05:44:57.524Z,971.08
2022-11-22T05:45:57.460Z,971.07
2022-11-22T05:46:57.549Z,971.14
2022-11-22T05:47:57.385Z,971.07
2022-11-22T05:48:57.531Z,971.17
2022-11-22T05:49:57.379Z,971.24
2022-11-22T05:50:57.346Z,971.33
2022-11-22T05:51:57.348Z,971.27
2022-11-22T05:52:57.479Z,971.26
2022-11-22T05:53:57.330Z,971.38
2022-11-22T05:54:57.343Z,971.43
2022-11-22T05:55:57.280Z,971.39
2022-11-22T05:56:57.295Z,971.39
2022-11-22T05:57:57.347Z,971.42
2022-11-22T05:58:57.299Z,971.46
2022-11-22T05:59:57.262Z,971.40
2022-11-22T06:00:57.237Z,971.36
2022-11-22T06:01:57.317Z,971.34
2022-11-22T06:02:57.243Z,971.30
2022-11-22T06:03:57.265Z,971.36
2022-11-22T06:04:57.191Z,971.35
2022-11-22T06:05:57.182Z,971.40
2022-11-22T06:06:57.229Z,971.41
2022-11-22T06:07:57.208Z,971.41
2022-11-22T06:08:57.244Z,971.40
2022-11-22T06:09:57.152Z,971.42
2022-11-22T06:10:57.148Z,971.39
2022-11-22T06:11:57.190Z,971.41
2022-11-22T06:12:57.118Z,971.43
2022-11-22T06:13:57.210Z,971.47
2022-11-22T06:14:57.276Z,971.44
2022-11-22T06:15:57.086Z,971.51
2022-11-22T06:16:57.133Z,971.38
2022-11-22T06:17:57.074Z,971.40
2022-11-22T06:18:57.100Z,971.25
2022-11-22T06:20:00.121Z,971.34
2022-11-22T06:20:58.017Z,971.43
2022-11-22T06:21:57.142Z,971.44
2022-11-22T06:22:57.293Z,971.47
2022-11-22T06:23:57.069Z,971.54
2022-11-22T06:24:56.981Z,971.52
2022-11-22T06:25:56.995Z,971.56
2022-11-22T06:26:56.967Z,971.60
2022-11-22T06:27:56.992Z,971.61
2022-11-22T06:28:57.004Z,971.61
2022-11-22T06:29:56.944Z,971.62
2022-11-22T06:30:56.908Z,971.59
2022-11-22T06:32:03.126Z,971.63
2022-11-22T06:32:57.969Z,971.66
2022-11-22T06:33:56.974Z,971.71
2022-11-22T06:34:56.943Z,971.78
2022-11-22T06:35:56.936Z,971.79
2022-11-22T06:36:56.940Z,971.80
2022-11-22T06:38:00.631Z,971.80
2022-11-22T06:38:56.851Z,971.85
2022-11-22T06:39:56.806Z,971.82
2022-11-22T06:40:56.803Z,971.85
2022-11-22T06:41:56.805Z,971.87
2022-11-22T06:42:56.823Z,971.81
2022-11-22T06:43:56.807Z,971.84
2022-11-22T06:44:56.889Z,971.82
2022-11-22T06:45:56.837Z,971.81
2022-11-22T06:46:56.788Z,971.91
2022-11-22T06:47:56.794Z,971.92
2022-11-22T06:48:56.762Z,972.01
2022-11-22T06:49:56.775Z,971.95
2022-11-22T06:50:56.711Z,972.02
2022-11-22T06:51:56.888Z,971.97
2022-11-22T06:52:56.731Z,972.02
2022-11-22T06:53:56.697Z,972.01
2022-11-22T06:54:56.666Z,972.00
2022-11-22T06:56:01.158Z,972.07
2022-11-22T06:56:56.749Z,972.09
2022-11-22T06:57:56.690Z,972.12
2022-11-22T06:58:56.700Z,972.11
2022-11-22T06:59:56.623Z,972.16
2022-11-22T07:00:56.602Z,972.13
2022-11-22T07:01:59.009Z,972.15
2022-11-22T07:02:57.605Z,972.19
2022-11-22T07:03:56.585Z,972.26
2022-11-22T07:05:23.940Z,972.27
2022-11-22T07:05:57.537Z,972.31
2022-11-22T07:06:56.601Z,972.30
2022-11-22T07:08:02.839Z,972.38
2022-11-22T07:08:57.545Z,972.39
2022-11-22T07:09:56.803Z,972.39
2022-11-22T07:10:56.503Z,972.45
2022-11-22T07:11:56.527Z,972.42
2022-11-22T07:12:56.472Z,972.53
2022-11-22T07:13:59.211Z,972.46
2022-11-22T07:14:57.478Z,972.43
2022-11-22T07:15:56.472Z,972.45
2022-11-22T07:16:56.435Z,972.41
2022-11-22T07:17:56.422Z,972.47
2022-11-22T07:18:56.482Z,972.49
2022-11-22T07:19:56.419Z,972.47
2022-11-22T07:20:56.376Z,972.53
2022-11-22T07:21:56.390Z,972.48
2022-11-22T07:22:56.354Z,972.58
2022-11-22T07:23:56.339Z,972.58
2022-11-22T07:24:56.466Z,972.57
2022-11-22T07:25:56.355Z,972.62
2022-11-22T07:26:56.391Z,972.63
2022-11-22T07:27:56.388Z,972.66
2022-11-22T07:28:56.401Z,972.64
2022-11-22T07:29:56.287Z,972.73
2022-11-22T07:30:56.340Z,972.69
2022-11-22T07:31:56.305Z,972.71
2022-11-22T07:32:56.242Z,972.75
2022-11-22T07:33:56.241Z,972.78
2022-11-22T07:34:56.271Z,972.75
2022-11-22T07:35:56.296Z,972.79
2022-11-22T07:37:00.522Z,972.78
2022-11-22T07:37:57.267Z,972.77
2022-11-22T07:38:56.200Z,972.81
2022-11-22T07:39:56.191Z,972.82
2022-11-22T07:40:56.290Z,972.86
2022-11-22T07:41:56.166Z,972.80
2022-11-22T07:42:58.620Z,972.88
2022-11-22T07:43:56.221Z,972.92
2022-11-22T07:44:56.216Z,972.88
2022-11-22T07:45:56.113Z,972.88
2022-11-22T07:46:56.127Z,972.94
2022-11-22T07:47:56.094Z,972.90
2022-11-22T07:48:56.271Z,972.96
2022-11-22T07:49:56.251Z,972.91
2022-11-22T07:50:56.051Z,972.95
2022-11-22T07:51:56.083Z,972.85
2022-11-22T07:52:56.102Z,972.90
2022-11-22T07:53:56.199Z,972.96
2022-11-22T07:54:56.063Z,972.91
2022-11-22T07:55:56.003Z,972.97
2022-11-22T07:56:55.996Z,973.02
2022-11-22T07:57:55.983Z,972.94
2022-11-22T07:58:55.988Z,972.97
2022-11-22T07:59:56.005Z,973.02
2022-11-22T08:00:55.966Z,973.02
2022-11-22T08:01:56.074Z,973.04
2022-11-22T08:02:56.002Z,972.96
2022-11-22T08:03:55.960Z,972.97
2022-11-22T08:04:55.900Z,972.96
2022-11-22T08:05:55.895Z,972.96
2022-11-22T08:06:55.924Z,972.92
2022-11-22T08:07:56.045Z,972.88
2022-11-22T08:09:01.783Z,972.83
2022-11-22T08:09:56.904Z,972.87
2022-11-22T08:10:55.849Z,972.93
2022-11-22T08:11:55.903Z,972.92
2022-11-22T08:12:55.839Z,972.89
2022-11-22T08:13:55.808Z,972.89
2022-11-22T08:14:55.896Z,972.90
2022-11-22T08:15:59.604Z,972.98
2022-11-22T08:16:56.912Z,972.95
2022-11-22T08:17:55.871Z,972.92
2022-11-22T08:18:55.777Z,972.95
2022-11-22T08:19:55.827Z,972.97
2022-11-22T08:20:55.868Z,972.92
2022-11-22T08:21:58.631Z,972.94
2022-11-22T08:22:55.790Z,972.95
2022-11-22T08:23:55.842Z,972.94
2022-11-22T08:24:55.755Z,972.92
2022-11-22T08:25:55.719Z,972.99
2022-11-22T08:26:55.707Z,972.96
2022-11-22T08:27:55.714Z,973.03
2022-11-22T08:28:55.668Z,973.03
2022-11-22T08:29:55.697Z,973.04
2022-11-22T08:30:55.639Z,972.97
2022-11-22T08:31:55.677Z,973.09
2022-11-22T08:32:55.628Z,972.94
2022-11-22T08:33:55.600Z,973.03
2022-11-22T08:34:55.602Z,973.04
2022-11-22T08:35:55.609Z,973.08
2022-11-22T08:36:55.600Z,973.13
2022-11-22T08:37:55.624Z,973.04
2022-11-22T08:38:55.602Z,973.09
2022-11-22T08:39:55.660Z,972.97
2022-11-22T08:40:55.541Z,973.04
2022-11-22T08:41:55.661Z,972.95
2022-11-22T08:42:55.538Z,973.03
2022-11-22T08:43:55.488Z,972.97
2022-11-22T08:44:55.512Z,972.86
2022-11-22T08:45:55.479Z,973.03
2022-11-22T08:46:55.627Z,972.90
2022-11-22T08:47:55.481Z,972.91
2022-11-22T08:48:55.712Z,972.87
2022-11-22T08:49:55.430Z,972.84
2022-11-22T08:50:55.427Z,972.87
2022-11-22T08:51:55.513Z,972.83
2022-11-22T08:52:55.787Z,972.80
2022-11-22T08:53:55.435Z,972.76
2022-11-22T08:54:55.374Z,972.74
2022-11-22T08:55:55.387Z,972.79
2022-11-22T08:56:55.374Z,972.80
2022-11-22T08:57:55.383Z,972.80
2022-11-22T08:58:55.348Z,972.80
2022-11-22T08:59:55.362Z,972.76
2022-11-22T09:00:55.589Z,972.80
2022-11-22T09:01:55.390Z,972.73
2022-11-22T09:02:55.454Z,972.70
2022-11-22T09:03:55.291Z,972.77
2022-11-22T09:04:55.257Z,972.79
2022-11-22T09:09:15.069Z,972.86
2022-11-22T09:09:56.218Z,972.89
2022-11-22T09:10:55.300Z,972.87
2022-11-22T09:11:55.350Z,972.87
2022-11-22T09:12:55.203Z,972.95
2022-11-22T09:13:55.219Z,972.76
2022-11-22T09:14:55.252Z,972.83
2022-11-22T09:15:55.161Z,972.89
2022-11-22T09:16:55.606Z,972.84
2022-11-22T09:17:55.173Z,972.88
2022-11-22T09:18:55.196Z,972.91
2022-11-22T09:19:55.201Z,972.92
2022-11-22T09:20:55.125Z,972.86
2022-11-22T09:21:55.099Z,972.83
2022-11-22T09:22:55.112Z,972.84
2022-11-22T09:23:55.132Z,972.76
2022-11-22T09:24:55.089Z,972.85
2022-11-22T09:25:55.075Z,972.80
2022-11-22T09:26:55.164Z,972.82
2022-11-22T09:27:55.149Z,972.85
2022-11-22T09:28:55.068Z,972.94
2022-11-22T09:29:55.144Z,972.93
2022-11-22T09:30:54.986Z,972.98
2022-11-22T09:31:55.012Z,973.05
2022-11-22T09:32:55.058Z,972.99
2022-11-22T09:33:55.233Z,973.10
2022-11-22T09:34:55.008Z,973.05
2022-11-22T09:35:55.058Z,972.99
2022-11-22T09:36:54.960Z,972.96
2022-11-22T09:37:55.060Z,973.06
2022-11-22T09:38:54.965Z,973.07
2022-11-22T09:39:55.127Z,973.10
2022-11-22T09:40:54.874Z,972.99
2022-11-22T09:41:54.902Z,972.98
2022-11-22T09:42:54.865Z,972.98
2022-11-22T09:43:55.005Z,973.00
2022-11-22T09:44:54.824Z,973.02
2022-11-22T09:45:54.811Z,973.00
2022-11-22T09:46:54.819Z,973.01
2022-11-22T09:47:54.822Z,972.94
2022-11-22T09:48:55.142Z,972.95
2022-11-22T09:49:54.812Z,973.02
2022-11-22T09:50:55.162Z,973.10
2022-11-22T09:51:54.770Z,972.94
2022-11-22T09:52:54.781Z,972.99
2022-11-22T09:53:54.731Z,972.96
2022-11-22T09:54:54.748Z,972.95
2022-11-22T09:55:54.913Z,972.98
2022-11-22T09:56:54.765Z,972.95
2022-11-22T09:57:54.713Z,972.96
2022-11-22T09:58:54.707Z,972.97
2022-11-22T09:59:54.783Z,972.96
2022-11-22T10:00:54.763Z,973.13
2022-11-22T10:01:54.660Z,973.04
2022-11-22T10:03:00.266Z,973.02
2022-11-22T10:03:55.631Z,972.99
2022-11-22T10:04:54.655Z,973.12
2022-11-22T10:05:54.620Z,973.14
2022-11-22T10:06:54.611Z,973.18
2022-11-22T10:07:54.672Z,973.16
2022-11-22T10:08:54.586Z,973.21
2022-11-22T10:09:54.566Z,973.14
2022-11-22T10:10:54.571Z,973.18
2022-11-22T10:11:54.577Z,973.19
2022-11-22T10:12:54.598Z,973.23
2022-11-22T10:13:54.520Z,973.17
2022-11-22T10:14:54.503Z,973.19
2022-11-22T10:15:54.613Z,973.17
2022-11-22T10:16:54.509Z,973.26
2022-11-22T10:17:54.487Z,973.25
2022-11-22T10:18:54.492Z,973.06
2022-11-22T10:19:54.506Z,973.15
2022-11-22T10:20:54.510Z,973.21
2022-11-22T10:21:54.446Z,973.03
2022-11-22T10:22:54.482Z,973.09
2022-11-22T10:23:54.510Z,973.07
2022-11-22T10:24:54.403Z,973.15
2022-11-22T10:25:54.425Z,973.03
2022-11-22T10:26:54.436Z,973.09
2022-11-22T10:27:57.608Z,973.04
2022-11-22T10:28:55.359Z,973.10
2022-11-22T10:29:54.371Z,973.06
2022-11-22T10:30:54.380Z,973.08
2022-11-22T10:31:54.499Z,972.99
2022-11-22T10:32:54.378Z,972.91
2022-11-22T10:33:54.327Z,972.92
2022-11-22T10:34:54.325Z,972.94
2022-11-22T10:35:54.359Z,972.96
2022-11-22T10:36:54.298Z,972.91
2022-11-22T10:37:54.292Z,972.91
2022-11-22T10:38:54.268Z,972.95
2022-11-22T10:39:54.235Z,972.90
2022-11-22T10:40:54.221Z,972.95
2022-11-22T10:41:54.300Z,972.93
2022-11-22T10:42:54.213Z,972.94
2022-11-22T10:43:54.240Z,972.87
2022-11-22T10:44:54.203Z,972.78
2022-11-22T10:45:54.204Z,972.89
2022-11-22T10:46:57.002Z,973.02
2022-11-22T10:47:54.310Z,972.97
2022-11-22T10:48:54.196Z,972.96
2022-11-22T10:49:54.159Z,973.03
2022-11-22T10:50:54.160Z,972.90
2022-11-22T10:51:54.110Z,972.94
2022-11-22T10:52:54.594Z,972.88
2022-11-22T10:53:56.549Z,972.92
2022-11-22T10:54:55.109Z,972.99
2022-11-22T10:55:54.068Z,973.03
2022-11-22T10:56:54.050Z,972.95
2022-11-22T10:57:54.090Z,972.90
2022-11-22T10:58:54.073Z,972.93
2022-11-22T10:59:54.030Z,972.96
2022-11-22T11:00:54.068Z,973.00
2022-11-22T11:01:54.000Z,972.89
2022-11-22T11:02:54.024Z,972.95
2022-11-22T11:03:54.134Z,972.81
2022-11-22T11:04:54.070Z,972.80
2022-11-22T11:06:22.343Z,972.80
2022-11-22T11:08:04.052Z,972.78
2022-11-22T11:09:48.040Z,972.72
2022-11-22T11:10:10.986Z,972.62
2022-11-22T11:10:54.992Z,972.72
2022-11-22T11:11:53.903Z,972.78
2022-11-22T11:12:53.934Z,972.78
2022-11-22T11:13:53.878Z,972.74
2022-11-22T11:14:53.873Z,972.65
2022-11-22T11:15:56.206Z,972.72
2022-11-22T11:16:53.883Z,972.73
2022-11-22T11:17:53.897Z,972.76
2022-11-22T11:18:53.894Z,972.68
2022-11-22T11:19:53.928Z,972.66
2022-11-22T11:20:53.791Z,972.66
2022-11-22T11:21:53.794Z,972.69
2022-11-22T11:23:54.795Z,972.76
2022-11-22T11:24:53.779Z,972.74
2022-11-22T11:25:53.776Z,972.77
2022-11-22T11:26:53.764Z,972.69
2022-11-22T11:27:53.792Z,972.67
2022-11-22T11:28:53.708Z,972.78
2022-11-22T11:29:53.760Z,972.73
2022-11-22T11:30:53.710Z,972.82
2022-11-22T11:31:53.698Z,972.67
2022-11-22T11:32:53.752Z,972.70
2022-11-22T11:33:53.665Z,972.73
2022-11-22T11:34:53.711Z,972.68
2022-11-22T11:35:53.752Z,972.72
2022-11-22T11:36:53.638Z,972.64
2022-11-22T11:37:53.653Z,972.72
2022-11-22T11:38:53.628Z,972.72
2022-11-22T11:39:53.594Z,972.68
2022-11-22T11:40:53.603Z,972.73
2022-11-22T11:41:53.601Z,972.66
2022-11-22T11:42:53.588Z,972.66
2022-11-22T11:43:53.604Z,972.64
2022-11-22T11:44:53.569Z,972.69
2022-11-22T11:45:53.532Z,972.64
2022-11-22T11:46:53.537Z,972.60
2022-11-22T11:47:53.550Z,972.55
2022-11-22T11:48:53.571Z,972.62
2022-11-22T11:49:53.562Z,972.60
2022-11-22T11:50:53.478Z,972.66
2022-11-22T11:51:53.597Z,972.57
2022-11-22T11:52:53.521Z,972.60
2022-11-22T11:53:53.495Z,972.62
2022-11-22T11:54:53.434Z,972.68
2022-11-22T11:55:53.432Z,972.58
2022-11-22T11:56:53.420Z,972.64
2022-11-22T11:57:53.437Z,972.60
2022-11-22T11:58:53.405Z,972.68
2022-11-22T11:59:53.377Z,972.62
2022-11-22T12:00:53.367Z,972.65
2022-11-22T12:01:53.437Z,972.57
2022-11-22T12:02:53.410Z,972.61
2022-11-22T12:03:53.349Z,972.53
2022-11-22T12:04:53.356Z,972.50
2022-11-22T12:05:53.351Z,972.57
2022-11-22T12:06:53.338Z,972.46
2022-11-22T12:07:53.635Z,972.52
2022-11-22T12:08:53.292Z,972.53
2022-11-22T12:09:53.376Z,972.48
2022-11-22T12:10:53.310Z,972.47
2022-11-22T12:11:53.279Z,972.50
2022-11-22T12:12:53.286Z,972.51
2022-11-22T12:15:10.687Z,972.47
2022-11-22T12:15:54.215Z,972.48
2022-11-22T12:16:53.268Z,972.48
2022-11-22T12:17:53.221Z,972.45
2022-11-22T12:18:53.228Z,972.46
2022-11-22T12:19:53.185Z,972.36
2022-11-22T12:20:53.172Z,972.48
2022-11-22T12:21:53.211Z,972.39
2022-11-22T12:22:53.220Z,972.39
2022-11-22T12:23:53.251Z,972.33
2022-11-22T12:25:16.995Z,972.35
2022-11-22T12:25:54.090Z,972.29
2022-11-22T12:26:53.198Z,972.27
2022-11-22T12:27:53.112Z,972.33
2022-11-22T12:28:53.138Z,972.30
2022-11-22T12:29:53.078Z,972.36
2022-11-22T12:30:53.069Z,972.28
2022-11-22T12:31:53.074Z,972.34
2022-11-22T12:32:53.039Z,972.34
2022-11-22T12:33:53.087Z,972.30